sensor_id;sensor_type;location;lat;lon;timestamp;P1;durP1;ratioP1;P2;durP2;ratioP2
75297;SDS011;63896;45.990;18.688;2023-04-26T00:01:04;1.92;;;1.30;;
75297;SDS011;63896;45.990;18.688;2023-04-26T00:04:07;1.67;;;1.37;;
75297;SDS011;63896;45.990;18.688;2023-04-26T00:07:11;1.42;;;1.20;;
75297;SDS011;63896;45.990;18.688;2023-04-26T00:10:15;2.28;;;1.38;;
75297;SDS011;63896;45.990;18.688;2023-04-26T00:13:18;2.10;;;1.30;;
75297;SDS011;63896;45.990;18.688;2023-04-26T00:16:20;1.63;;;1.20;;
75297;SDS011;63896;45.990;18.688;2023-04-26T00:19:24;1.87;;;1.30;;
75297;SDS011;63896;45.990;18.688;2023-04-26T00:22:27;5.10;;;1.52;;
75297;SDS011;63896;45.990;18.688;2023-04-26T00:25:30;4.75;;;1.10;;
75297;SDS011;63896;45.990;18.688;2023-04-26T00:28:33;3.75;;;1.60;;
75297;SDS011;63896;45.990;18.688;2023-04-26T00:31:36;3.28;;;1.48;;
75297;SDS011;63896;45.990;18.688;2023-04-26T00:34:39;2.80;;;1.50;;
75297;SDS011;63896;45.990;18.688;2023-04-26T00:37:41;2.15;;;1.40;;
75297;SDS011;63896;45.990;18.688;2023-04-26T00:40:45;3.15;;;1.75;;
75297;SDS011;63896;45.990;18.688;2023-04-26T00:43:48;4.80;;;1.50;;
75297;SDS011;63896;45.990;18.688;2023-04-26T00:46:51;5.07;;;1.80;;
75297;SDS011;63896;45.990;18.688;2023-04-26T00:49:54;2.80;;;1.80;;
75297;SDS011;63896;45.990;18.688;2023-04-26T00:52:58;2.85;;;1.90;;
75297;SDS011;63896;45.990;18.688;2023-04-26T00:56:02;2.90;;;1.90;;
75297;SDS011;63896;45.990;18.688;2023-04-26T00:59:05;3.97;;;2.10;;
75297;SDS011;63896;45.990;18.688;2023-04-26T01:02:08;2.67;;;2.15;;
75297;SDS011;63896;45.990;18.688;2023-04-26T01:05:11;4.80;;;2.23;;
75297;SDS011;63896;45.990;18.688;2023-04-26T01:08:14;4.30;;;2.25;;
75297;SDS011;63896;45.990;18.688;2023-04-26T01:11:22;3.70;;;2.40;;
75297;SDS011;63896;45.990;18.688;2023-04-26T01:14:25;5.90;;;2.83;;
75297;SDS011;63896;45.990;18.688;2023-04-26T01:17:29;3.90;;;2.65;;
75297;SDS011;63896;45.990;18.688;2023-04-26T01:20:32;3.70;;;2.23;;
75297;SDS011;63896;45.990;18.688;2023-04-26T01:23:36;4.07;;;2.75;;
75297;SDS011;63896;45.990;18.688;2023-04-26T01:26:46;6.38;;;3.30;;
75297;SDS011;63896;45.990;18.688;2023-04-26T01:29:49;4.03;;;2.75;;
75297;SDS011;63896;45.990;18.688;2023-04-26T01:32:52;4.25;;;2.85;;
75297;SDS011;63896;45.990;18.688;2023-04-26T01:35:55;7.30;;;3.00;;
75297;SDS011;63896;45.990;18.688;2023-04-26T01:38:58;5.65;;;3.50;;
75297;SDS011;63896;45.990;18.688;2023-04-26T01:42:01;5.20;;;3.67;;
75297;SDS011;63896;45.990;18.688;2023-04-26T01:45:06;5.30;;;3.28;;
75297;SDS011;63896;45.990;18.688;2023-04-26T01:48:28;4.45;;;3.08;;
75297;SDS011;63896;45.990;18.688;2023-04-26T01:51:31;5.90;;;3.13;;
75297;SDS011;63896;45.990;18.688;2023-04-26T01:54:34;5.53;;;3.40;;
75297;SDS011;63896;45.990;18.688;2023-04-26T01:57:37;5.22;;;3.75;;
75297;SDS011;63896;45.990;18.688;2023-04-26T02:00:40;5.25;;;3.65;;
75297;SDS011;63896;45.990;18.688;2023-04-26T02:03:44;6.10;;;4.00;;
75297;SDS011;63896;45.990;18.688;2023-04-26T02:06:47;5.63;;;3.73;;
75297;SDS011;63896;45.990;18.688;2023-04-26T02:09:50;6.72;;;3.83;;
75297;SDS011;63896;45.990;18.688;2023-04-26T02:12:53;6.70;;;4.35;;
75297;SDS011;63896;45.990;18.688;2023-04-26T02:15:56;6.63;;;3.90;;
75297;SDS011;63896;45.990;18.688;2023-04-26T02:19:00;6.18;;;4.13;;
75297;SDS011;63896;45.990;18.688;2023-04-26T02:22:06;5.53;;;3.80;;
75297;SDS011;63896;45.990;18.688;2023-04-26T02:25:09;8.32;;;4.43;;
75297;SDS011;63896;45.990;18.688;2023-04-26T02:28:13;7.25;;;4.38;;
75297;SDS011;63896;45.990;18.688;2023-04-26T02:31:17;8.20;;;4.85;;
75297;SDS011;63896;45.990;18.688;2023-04-26T02:34:23;10.07;;;4.45;;
75297;SDS011;63896;45.990;18.688;2023-04-26T02:37:26;9.47;;;5.33;;
75297;SDS011;63896;45.990;18.688;2023-04-26T02:40:29;7.85;;;5.22;;
75297;SDS011;63896;45.990;18.688;2023-04-26T02:43:32;7.80;;;5.25;;
75297;SDS011;63896;45.990;18.688;2023-04-26T02:46:35;9.18;;;5.32;;
75297;SDS011;63896;45.990;18.688;2023-04-26T02:49:39;10.77;;;5.40;;
75297;SDS011;63896;45.990;18.688;2023-04-26T02:52:42;8.17;;;4.77;;
75297;SDS011;63896;45.990;18.688;2023-04-26T02:55:45;9.88;;;5.18;;
75297;SDS011;63896;45.990;18.688;2023-04-26T02:58:48;8.00;;;5.43;;
75297;SDS011;63896;45.990;18.688;2023-04-26T03:01:52;9.35;;;5.75;;
75297;SDS011;63896;45.990;18.688;2023-04-26T03:04:55;10.90;;;5.15;;
75297;SDS011;63896;45.990;18.688;2023-04-26T03:07:58;9.93;;;5.63;;
75297;SDS011;63896;45.990;18.688;2023-04-26T03:11:01;8.75;;;4.78;;
75297;SDS011;63896;45.990;18.688;2023-04-26T03:14:05;9.73;;;5.45;;
75297;SDS011;63896;45.990;18.688;2023-04-26T03:17:08;13.48;;;5.97;;
75297;SDS011;63896;45.990;18.688;2023-04-26T03:20:11;9.15;;;4.70;;
75297;SDS011;63896;45.990;18.688;2023-04-26T03:23:14;9.13;;;5.63;;
75297;SDS011;63896;45.990;18.688;2023-04-26T03:26:17;9.82;;;5.18;;
75297;SDS011;63896;45.990;18.688;2023-04-26T03:29:20;8.30;;;4.65;;
75297;SDS011;63896;45.990;18.688;2023-04-26T03:32:23;9.55;;;5.43;;
75297;SDS011;63896;45.990;18.688;2023-04-26T03:35:26;10.25;;;5.15;;
75297;SDS011;63896;45.990;18.688;2023-04-26T03:38:29;10.30;;;5.03;;
75297;SDS011;63896;45.990;18.688;2023-04-26T03:41:32;10.35;;;5.32;;
75297;SDS011;63896;45.990;18.688;2023-04-26T03:44:39;10.18;;;5.47;;
75297;SDS011;63896;45.990;18.688;2023-04-26T03:47:45;9.45;;;4.95;;
75297;SDS011;63896;45.990;18.688;2023-04-26T03:50:48;10.52;;;5.28;;
75297;SDS011;63896;45.990;18.688;2023-04-26T03:53:51;9.80;;;5.60;;
75297;SDS011;63896;45.990;18.688;2023-04-26T03:56:54;14.38;;;5.60;;
75297;SDS011;63896;45.990;18.688;2023-04-26T03:59:57;8.95;;;5.38;;
75297;SDS011;63896;45.990;18.688;2023-04-26T04:03:00;11.30;;;5.43;;
75297;SDS011;63896;45.990;18.688;2023-04-26T04:06:03;10.82;;;5.05;;
75297;SDS011;63896;45.990;18.688;2023-04-26T04:09:07;12.80;;;5.13;;
75297;SDS011;63896;45.990;18.688;2023-04-26T04:12:10;9.80;;;5.10;;
75297;SDS011;63896;45.990;18.688;2023-04-26T04:15:14;9.05;;;5.22;;
75297;SDS011;63896;45.990;18.688;2023-04-26T04:18:20;8.95;;;5.00;;
75297;SDS011;63896;45.990;18.688;2023-04-26T04:21:26;9.43;;;5.10;;
75297;SDS011;63896;45.990;18.688;2023-04-26T04:24:31;9.90;;;4.80;;
75297;SDS011;63896;45.990;18.688;2023-04-26T04:27:35;7.80;;;4.97;;
75297;SDS011;63896;45.990;18.688;2023-04-26T04:30:40;7.75;;;4.90;;
75297;SDS011;63896;45.990;18.688;2023-04-26T04:33:44;8.00;;;4.38;;
75297;SDS011;63896;45.990;18.688;2023-04-26T04:36:48;9.65;;;4.78;;
75297;SDS011;63896;45.990;18.688;2023-04-26T04:39:52;13.57;;;4.50;;
75297;SDS011;63896;45.990;18.688;2023-04-26T04:42:55;6.85;;;4.88;;
75297;SDS011;63896;45.990;18.688;2023-04-26T04:46:00;7.20;;;4.60;;
75297;SDS011;63896;45.990;18.688;2023-04-26T04:49:03;7.65;;;3.80;;
75297;SDS011;63896;45.990;18.688;2023-04-26T04:52:06;13.32;;;4.90;;
75297;SDS011;63896;45.990;18.688;2023-04-26T04:55:09;8.13;;;4.70;;
75297;SDS011;63896;45.990;18.688;2023-04-26T04:58:13;7.00;;;4.43;;
75297;SDS011;63896;45.990;18.688;2023-04-26T05:01:16;9.68;;;4.00;;
75297;SDS011;63896;45.990;18.688;2023-04-26T05:04:27;9.15;;;4.53;;
75297;SDS011;63896;45.990;18.688;2023-04-26T05:07:30;9.75;;;4.63;;
75297;SDS011;63896;45.990;18.688;2023-04-26T05:10:35;10.13;;;4.40;;
75297;SDS011;63896;45.990;18.688;2023-04-26T05:13:41;7.45;;;4.63;;
75297;SDS011;63896;45.990;18.688;2023-04-26T05:16:45;8.02;;;5.22;;
75297;SDS011;63896;45.990;18.688;2023-04-26T05:19:48;11.05;;;5.22;;
75297;SDS011;63896;45.990;18.688;2023-04-26T05:22:51;9.32;;;5.05;;
75297;SDS011;63896;45.990;18.688;2023-04-26T05:25:54;11.83;;;4.97;;
75297;SDS011;63896;45.990;18.688;2023-04-26T05:29:29;8.07;;;4.53;;
75297;SDS011;63896;45.990;18.688;2023-04-26T05:32:57;8.85;;;4.97;;
75297;SDS011;63896;45.990;18.688;2023-04-26T05:36:35;7.95;;;4.20;;
75297;SDS011;63896;45.990;18.688;2023-04-26T05:39:39;8.88;;;4.30;;
75297;SDS011;63896;45.990;18.688;2023-04-26T05:42:42;6.63;;;4.37;;
75297;SDS011;63896;45.990;18.688;2023-04-26T05:45:51;6.38;;;4.03;;
75297;SDS011;63896;45.990;18.688;2023-04-26T05:48:55;9.25;;;4.55;;
75297;SDS011;63896;45.990;18.688;2023-04-26T05:51:58;7.18;;;4.13;;
75297;SDS011;63896;45.990;18.688;2023-04-26T05:55:02;7.88;;;3.50;;
75297;SDS011;63896;45.990;18.688;2023-04-26T05:58:06;8.97;;;4.00;;
75297;SDS011;63896;45.990;18.688;2023-04-26T06:01:09;9.07;;;4.28;;
75297;SDS011;63896;45.990;18.688;2023-04-26T06:04:14;6.88;;;4.07;;
75297;SDS011;63896;45.990;18.688;2023-04-26T06:07:32;7.97;;;4.20;;
75297;SDS011;63896;45.990;18.688;2023-04-26T06:10:37;6.22;;;4.00;;
75297;SDS011;63896;45.990;18.688;2023-04-26T06:13:41;6.23;;;3.80;;
75297;SDS011;63896;45.990;18.688;2023-04-26T06:16:52;9.00;;;3.80;;
75297;SDS011;63896;45.990;18.688;2023-04-26T06:20:00;7.90;;;3.50;;
75297;SDS011;63896;45.990;18.688;2023-04-26T06:23:06;7.18;;;3.88;;
75297;SDS011;63896;45.990;18.688;2023-04-26T06:26:10;6.70;;;3.60;;
75297;SDS011;63896;45.990;18.688;2023-04-26T06:29:16;6.47;;;3.33;;
75297;SDS011;63896;45.990;18.688;2023-04-26T06:32:19;5.63;;;2.67;;
75297;SDS011;63896;45.990;18.688;2023-04-26T06:35:31;5.47;;;3.17;;
75297;SDS011;63896;45.990;18.688;2023-04-26T06:38:36;8.65;;;3.22;;
75297;SDS011;63896;45.990;18.688;2023-04-26T06:41:47;9.90;;;3.90;;
75297;SDS011;63896;45.990;18.688;2023-04-26T06:45:02;4.30;;;2.80;;
75297;SDS011;63896;45.990;18.688;2023-04-26T06:48:11;4.30;;;2.70;;
75297;SDS011;63896;45.990;18.688;2023-04-26T06:51:14;6.07;;;3.05;;
75297;SDS011;63896;45.990;18.688;2023-04-26T06:54:18;6.70;;;3.17;;
75297;SDS011;63896;45.990;18.688;2023-04-26T06:57:21;5.13;;;2.92;;
75297;SDS011;63896;45.990;18.688;2023-04-26T07:00:24;5.80;;;3.30;;
75297;SDS011;63896;45.990;18.688;2023-04-26T07:03:31;6.05;;;2.90;;
75297;SDS011;63896;45.990;18.688;2023-04-26T07:06:49;3.70;;;2.40;;
75297;SDS011;63896;45.990;18.688;2023-04-26T07:09:56;4.05;;;2.45;;
75297;SDS011;63896;45.990;18.688;2023-04-26T07:13:01;6.53;;;2.67;;
75297;SDS011;63896;45.990;18.688;2023-04-26T07:16:05;6.70;;;2.97;;
75297;SDS011;63896;45.990;18.688;2023-04-26T07:19:09;4.97;;;2.83;;
75297;SDS011;63896;45.990;18.688;2023-04-26T07:22:18;7.13;;;2.70;;
75297;SDS011;63896;45.990;18.688;2023-04-26T07:25:22;7.35;;;2.70;;
75297;SDS011;63896;45.990;18.688;2023-04-26T07:28:25;3.45;;;2.45;;
75297;SDS011;63896;45.990;18.688;2023-04-26T07:31:29;8.40;;;2.87;;
75297;SDS011;63896;45.990;18.688;2023-04-26T07:34:33;3.65;;;2.35;;
75297;SDS011;63896;45.990;18.688;2023-04-26T07:41:12;5.97;;;2.90;;
75297;SDS011;63896;45.990;18.688;2023-04-26T07:44:15;4.88;;;2.70;;
75297;SDS011;63896;45.990;18.688;2023-04-26T07:47:18;4.23;;;2.53;;
75297;SDS011;63896;45.990;18.688;2023-04-26T07:50:21;7.05;;;2.70;;
75297;SDS011;63896;45.990;18.688;2023-04-26T07:58:00;10.18;;;2.88;;
75297;SDS011;63896;45.990;18.688;2023-04-26T08:01:04;4.47;;;2.53;;
75297;SDS011;63896;45.990;18.688;2023-04-26T08:04:07;4.40;;;2.63;;
75297;SDS011;63896;45.990;18.688;2023-04-26T08:07:11;4.20;;;2.72;;
75297;SDS011;63896;45.990;18.688;2023-04-26T08:10:15;4.43;;;3.10;;
75297;SDS011;63896;45.990;18.688;2023-04-26T08:13:23;8.05;;;2.97;;
75297;SDS011;63896;45.990;18.688;2023-04-26T08:16:30;3.88;;;2.28;;
75297;SDS011;63896;45.990;18.688;2023-04-26T08:19:33;4.47;;;2.77;;
75297;SDS011;63896;45.990;18.688;2023-04-26T08:22:37;4.20;;;2.40;;
75297;SDS011;63896;45.990;18.688;2023-04-26T08:25:40;5.75;;;2.78;;
75297;SDS011;63896;45.990;18.688;2023-04-26T08:28:45;5.07;;;2.70;;
75297;SDS011;63896;45.990;18.688;2023-04-26T08:31:54;8.27;;;2.30;;
75297;SDS011;63896;45.990;18.688;2023-04-26T08:35:03;4.90;;;2.40;;
75297;SDS011;63896;45.990;18.688;2023-04-26T08:38:06;4.97;;;2.58;;
75297;SDS011;63896;45.990;18.688;2023-04-26T08:41:12;10.95;;;2.13;;
75297;SDS011;63896;45.990;18.688;2023-04-26T08:44:19;4.78;;;2.50;;
75297;SDS011;63896;45.990;18.688;2023-04-26T08:47:34;5.00;;;2.20;;
75297;SDS011;63896;45.990;18.688;2023-04-26T08:50:44;3.33;;;2.10;;
75297;SDS011;63896;45.990;18.688;2023-04-26T08:53:50;4.45;;;2.45;;
75297;SDS011;63896;45.990;18.688;2023-04-26T08:56:56;9.45;;;2.90;;
75297;SDS011;63896;45.990;18.688;2023-04-26T09:00:01;4.60;;;2.58;;
75297;SDS011;63896;45.990;18.688;2023-04-26T09:03:09;4.25;;;2.70;;
75297;SDS011;63896;45.990;18.688;2023-04-26T09:06:17;4.83;;;2.90;;
75297;SDS011;63896;45.990;18.688;2023-04-26T09:09:21;6.05;;;2.80;;
75297;SDS011;63896;45.990;18.688;2023-04-26T09:12:25;5.88;;;2.60;;
75297;SDS011;63896;45.990;18.688;2023-04-26T09:15:29;3.75;;;2.38;;
75297;SDS011;63896;45.990;18.688;2023-04-26T09:18:31;7.13;;;2.25;;
75297;SDS011;63896;45.990;18.688;2023-04-26T09:21:40;3.80;;;2.30;;
75297;SDS011;63896;45.990;18.688;2023-04-26T09:24:47;10.73;;;2.25;;
75297;SDS011;63896;45.990;18.688;2023-04-26T09:27:54;2.83;;;2.20;;
75297;SDS011;63896;45.990;18.688;2023-04-26T09:30:58;6.22;;;2.53;;
75297;SDS011;63896;45.990;18.688;2023-04-26T09:34:01;5.95;;;2.67;;
75297;SDS011;63896;45.990;18.688;2023-04-26T09:37:04;7.03;;;2.50;;
75297;SDS011;63896;45.990;18.688;2023-04-26T09:40:17;5.35;;;2.28;;
75297;SDS011;63896;45.990;18.688;2023-04-26T09:43:21;7.82;;;2.55;;
75297;SDS011;63896;45.990;18.688;2023-04-26T09:46:24;4.75;;;2.17;;
75297;SDS011;63896;45.990;18.688;2023-04-26T09:49:28;5.53;;;2.83;;
75297;SDS011;63896;45.990;18.688;2023-04-26T09:52:41;5.30;;;2.60;;
75297;SDS011;63896;45.990;18.688;2023-04-26T09:55:46;6.47;;;2.50;;
75297;SDS011;63896;45.990;18.688;2023-04-26T09:58:58;8.98;;;2.65;;
75297;SDS011;63896;45.990;18.688;2023-04-26T10:02:34;9.65;;;2.85;;
75297;SDS011;63896;45.990;18.688;2023-04-26T10:05:37;7.07;;;2.90;;
75297;SDS011;63896;45.990;18.688;2023-04-26T10:08:47;5.93;;;2.37;;
75297;SDS011;63896;45.990;18.688;2023-04-26T10:11:50;4.85;;;2.25;;
75297;SDS011;63896;45.990;18.688;2023-04-26T10:14:53;3.20;;;2.00;;
75297;SDS011;63896;45.990;18.688;2023-04-26T10:18:00;4.47;;;2.10;;
75297;SDS011;63896;45.990;18.688;2023-04-26T10:21:39;6.50;;;2.00;;
75297;SDS011;63896;45.990;18.688;2023-04-26T10:25:14;4.87;;;2.10;;
75297;SDS011;63896;45.990;18.688;2023-04-26T10:35:12;6.72;;;1.95;;
75297;SDS011;63896;45.990;18.688;2023-04-26T10:38:18;2.25;;;1.58;;
75297;SDS011;63896;45.990;18.688;2023-04-26T10:41:43;5.80;;;2.00;;
75297;SDS011;63896;45.990;18.688;2023-04-26T10:44:51;5.18;;;1.90;;
75297;SDS011;63896;45.990;18.688;2023-04-26T10:48:18;5.57;;;1.70;;
75297;SDS011;63896;45.990;18.688;2023-04-26T10:51:35;2.50;;;1.30;;
75297;SDS011;63896;45.990;18.688;2023-04-26T10:58:39;5.33;;;1.77;;
75297;SDS011;63896;45.990;18.688;2023-04-26T11:01:43;9.00;;;1.63;;
75297;SDS011;63896;45.990;18.688;2023-04-26T11:04:53;5.20;;;1.77;;
75297;SDS011;63896;45.990;18.688;2023-04-26T11:11:49;7.38;;;2.17;;
75297;SDS011;63896;45.990;18.688;2023-04-26T11:14:58;5.53;;;1.93;;
75297;SDS011;63896;45.990;18.688;2023-04-26T11:18:39;2.90;;;1.70;;
75297;SDS011;63896;45.990;18.688;2023-04-26T11:21:52;2.35;;;1.70;;
75297;SDS011;63896;45.990;18.688;2023-04-26T11:25:23;2.78;;;1.58;;
75297;SDS011;63896;45.990;18.688;2023-04-26T11:28:32;3.80;;;1.70;;
75297;SDS011;63896;45.990;18.688;2023-04-26T11:31:37;5.37;;;1.60;;
75297;SDS011;63896;45.990;18.688;2023-04-26T11:34:44;2.85;;;1.73;;
75297;SDS011;63896;45.990;18.688;2023-04-26T11:37:50;2.45;;;1.50;;
75297;SDS011;63896;45.990;18.688;2023-04-26T11:40:57;5.75;;;1.98;;
75297;SDS011;63896;45.990;18.688;2023-04-26T11:44:01;5.28;;;1.80;;
75297;SDS011;63896;45.990;18.688;2023-04-26T11:47:05;4.60;;;1.80;;
75297;SDS011;63896;45.990;18.688;2023-04-26T11:50:12;4.40;;;1.65;;
75297;SDS011;63896;45.990;18.688;2023-04-26T11:53:16;2.85;;;1.52;;
75297;SDS011;63896;45.990;18.688;2023-04-26T11:56:19;2.65;;;1.88;;
75297;SDS011;63896;45.990;18.688;2023-04-26T12:02:28;3.40;;;1.60;;
75297;SDS011;63896;45.990;18.688;2023-04-26T12:05:31;3.97;;;1.70;;
75297;SDS011;63896;45.990;18.688;2023-04-26T12:08:40;3.75;;;1.63;;
75297;SDS011;63896;45.990;18.688;2023-04-26T12:11:47;4.28;;;1.40;;
75297;SDS011;63896;45.990;18.688;2023-04-26T12:14:54;6.88;;;1.55;;
75297;SDS011;63896;45.990;18.688;2023-04-26T12:18:07;4.40;;;1.60;;
75297;SDS011;63896;45.990;18.688;2023-04-26T12:21:12;3.63;;;1.10;;
75297;SDS011;63896;45.990;18.688;2023-04-26T12:24:25;3.08;;;1.50;;
75297;SDS011;63896;45.990;18.688;2023-04-26T12:27:41;4.68;;;1.88;;
75297;SDS011;63896;45.990;18.688;2023-04-26T12:31:02;2.65;;;1.70;;
75297;SDS011;63896;45.990;18.688;2023-04-26T12:34:06;2.17;;;1.67;;
75297;SDS011;63896;45.990;18.688;2023-04-26T12:37:09;5.10;;;1.63;;
75297;SDS011;63896;45.990;18.688;2023-04-26T12:40:12;2.70;;;1.40;;
75297;SDS011;63896;45.990;18.688;2023-04-26T12:43:18;5.18;;;1.83;;
75297;SDS011;63896;45.990;18.688;2023-04-26T12:46:25;7.65;;;1.90;;
75297;SDS011;63896;45.990;18.688;2023-04-26T12:49:28;4.83;;;1.50;;
75297;SDS011;63896;45.990;18.688;2023-04-26T12:52:36;4.43;;;1.67;;
75297;SDS011;63896;45.990;18.688;2023-04-26T12:55:48;4.10;;;1.00;;
75297;SDS011;63896;45.990;18.688;2023-04-26T12:58:51;6.45;;;2.25;;
75297;SDS011;63896;45.990;18.688;2023-04-26T13:01:57;2.72;;;1.30;;
75297;SDS011;63896;45.990;18.688;2023-04-26T13:05:05;8.37;;;2.07;;
75297;SDS011;63896;45.990;18.688;2023-04-26T13:08:12;3.60;;;1.30;;
75297;SDS011;63896;45.990;18.688;2023-04-26T13:11:19;8.98;;;1.50;;
75297;SDS011;63896;45.990;18.688;2023-04-26T13:14:26;2.42;;;1.20;;
75297;SDS011;63896;45.990;18.688;2023-04-26T13:17:29;6.53;;;1.25;;
75297;SDS011;63896;45.990;18.688;2023-04-26T13:20:33;4.63;;;1.50;;
75297;SDS011;63896;45.990;18.688;2023-04-26T13:23:36;5.55;;;1.98;;
75297;SDS011;63896;45.990;18.688;2023-04-26T13:26:40;3.00;;;1.10;;
75297;SDS011;63896;45.990;18.688;2023-04-26T13:29:43;3.85;;;1.35;;
75297;SDS011;63896;45.990;18.688;2023-04-26T13:32:47;4.10;;;1.10;;
75297;SDS011;63896;45.990;18.688;2023-04-26T13:35:50;2.10;;;1.70;;
75297;SDS011;63896;45.990;18.688;2023-04-26T13:38:53;2.50;;;1.10;;
75297;SDS011;63896;45.990;18.688;2023-04-26T13:41:57;4.28;;;1.27;;
75297;SDS011;63896;45.990;18.688;2023-04-26T13:45:00;3.00;;;1.30;;
75297;SDS011;63896;45.990;18.688;2023-04-26T13:48:07;2.45;;;1.20;;
75297;SDS011;63896;45.990;18.688;2023-04-26T13:51:10;3.43;;;1.80;;
75297;SDS011;63896;45.990;18.688;2023-04-26T13:54:13;2.75;;;1.30;;
75297;SDS011;63896;45.990;18.688;2023-04-26T13:57:16;2.88;;;1.25;;
75297;SDS011;63896;45.990;18.688;2023-04-26T14:00:19;3.97;;;1.30;;
75297;SDS011;63896;45.990;18.688;2023-04-26T14:03:25;3.75;;;1.23;;
75297;SDS011;63896;45.990;18.688;2023-04-26T14:06:29;3.93;;;1.83;;
75297;SDS011;63896;45.990;18.688;2023-04-26T14:09:33;2.88;;;1.15;;
75297;SDS011;63896;45.990;18.688;2023-04-26T14:12:36;3.88;;;1.45;;
75297;SDS011;63896;45.990;18.688;2023-04-26T14:15:43;2.58;;;1.25;;
75297;SDS011;63896;45.990;18.688;2023-04-26T14:18:46;5.32;;;1.13;;
75297;SDS011;63896;45.990;18.688;2023-04-26T14:21:50;2.80;;;0.93;;
75297;SDS011;63896;45.990;18.688;2023-04-26T14:24:53;4.95;;;1.15;;
75297;SDS011;63896;45.990;18.688;2023-04-26T14:27:56;4.05;;;1.75;;
75297;SDS011;63896;45.990;18.688;2023-04-26T14:30:59;4.65;;;1.90;;
75297;SDS011;63896;45.990;18.688;2023-04-26T14:34:02;3.30;;;1.13;;
75297;SDS011;63896;45.990;18.688;2023-04-26T14:37:05;4.50;;;1.50;;
75297;SDS011;63896;45.990;18.688;2023-04-26T14:40:08;3.17;;;1.52;;
75297;SDS011;63896;45.990;18.688;2023-04-26T14:43:14;11.48;;;1.85;;
75297;SDS011;63896;45.990;18.688;2023-04-26T14:46:17;2.58;;;1.30;;
75297;SDS011;63896;45.990;18.688;2023-04-26T14:49:20;3.83;;;1.30;;
75297;SDS011;63896;45.990;18.688;2023-04-26T14:52:23;3.63;;;1.83;;
75297;SDS011;63896;45.990;18.688;2023-04-26T14:55:28;5.57;;;1.60;;
75297;SDS011;63896;45.990;18.688;2023-04-26T14:58:31;3.75;;;1.55;;
75297;SDS011;63896;45.990;18.688;2023-04-26T15:01:34;3.47;;;1.80;;
75297;SDS011;63896;45.990;18.688;2023-04-26T15:04:37;4.50;;;2.00;;
75297;SDS011;63896;45.990;18.688;2023-04-26T15:07:40;3.20;;;1.23;;
75297;SDS011;63896;45.990;18.688;2023-04-26T15:10:43;5.10;;;1.40;;
75297;SDS011;63896;45.990;18.688;2023-04-26T15:13:46;3.45;;;1.60;;
75297;SDS011;63896;45.990;18.688;2023-04-26T15:16:49;4.20;;;1.48;;
75297;SDS011;63896;45.990;18.688;2023-04-26T15:19:52;4.50;;;1.70;;
75297;SDS011;63896;45.990;18.688;2023-04-26T15:22:55;3.60;;;1.50;;
75297;SDS011;63896;45.990;18.688;2023-04-26T15:26:01;3.17;;;1.50;;
75297;SDS011;63896;45.990;18.688;2023-04-26T15:29:05;4.53;;;1.80;;
75297;SDS011;63896;45.990;18.688;2023-04-26T15:32:08;12.85;;;1.98;;
75297;SDS011;63896;45.990;18.688;2023-04-26T15:35:11;3.65;;;1.38;;
75297;SDS011;63896;45.990;18.688;2023-04-26T15:38:14;5.37;;;1.57;;
75297;SDS011;63896;45.990;18.688;2023-04-26T15:41:17;4.68;;;2.08;;
75297;SDS011;63896;45.990;18.688;2023-04-26T15:44:20;4.40;;;1.67;;
75297;SDS011;63896;45.990;18.688;2023-04-26T15:47:23;4.72;;;1.50;;
75297;SDS011;63896;45.990;18.688;2023-04-26T15:50:26;2.70;;;1.20;;
75297;SDS011;63896;45.990;18.688;2023-04-26T15:53:29;6.87;;;1.50;;
75297;SDS011;63896;45.990;18.688;2023-04-26T15:56:32;2.25;;;1.33;;
75297;SDS011;63896;45.990;18.688;2023-04-26T15:59:34;11.00;;;2.05;;
75297;SDS011;63896;45.990;18.688;2023-04-26T16:02:38;8.02;;;2.80;;
75297;SDS011;63896;45.990;18.688;2023-04-26T16:05:41;4.65;;;1.50;;
75297;SDS011;63896;45.990;18.688;2023-04-26T16:08:43;2.67;;;1.30;;
75297;SDS011;63896;45.990;18.688;2023-04-26T16:11:46;2.78;;;1.63;;
75297;SDS011;63896;45.990;18.688;2023-04-26T16:14:49;3.05;;;1.52;;
75297;SDS011;63896;45.990;18.688;2023-04-26T16:17:53;4.25;;;1.80;;
75297;SDS011;63896;45.990;18.688;2023-04-26T16:21:05;3.47;;;1.80;;
75297;SDS011;63896;45.990;18.688;2023-04-26T16:24:11;6.43;;;1.70;;
75297;SDS011;63896;45.990;18.688;2023-04-26T16:27:14;6.03;;;1.80;;
75297;SDS011;63896;45.990;18.688;2023-04-26T16:30:17;2.42;;;1.38;;
75297;SDS011;63896;45.990;18.688;2023-04-26T16:33:21;6.40;;;1.98;;
75297;SDS011;63896;45.990;18.688;2023-04-26T16:36:25;4.97;;;1.83;;
75297;SDS011;63896;45.990;18.688;2023-04-26T16:39:29;5.70;;;1.80;;
75297;SDS011;63896;45.990;18.688;2023-04-26T16:42:35;5.20;;;1.83;;
75297;SDS011;63896;45.990;18.688;2023-04-26T16:45:45;7.38;;;2.03;;
75297;SDS011;63896;45.990;18.688;2023-04-26T16:48:48;6.05;;;2.53;;
75297;SDS011;63896;45.990;18.688;2023-04-26T16:51:51;8.23;;;2.30;;
75297;SDS011;63896;45.990;18.688;2023-04-26T16:54:57;4.90;;;1.50;;
75297;SDS011;63896;45.990;18.688;2023-04-26T16:58:01;4.75;;;1.35;;
75297;SDS011;63896;45.990;18.688;2023-04-26T17:01:04;4.80;;;1.60;;
75297;SDS011;63896;45.990;18.688;2023-04-26T17:04:07;3.85;;;1.75;;
75297;SDS011;63896;45.990;18.688;2023-04-26T17:07:14;3.28;;;1.73;;
75297;SDS011;63896;45.990;18.688;2023-04-26T17:10:18;8.53;;;2.70;;
75297;SDS011;63896;45.990;18.688;2023-04-26T17:13:22;6.70;;;2.55;;
75297;SDS011;63896;45.990;18.688;2023-04-26T17:16:26;5.18;;;2.10;;
75297;SDS011;63896;45.990;18.688;2023-04-26T17:19:32;6.93;;;3.10;;
75297;SDS011;63896;45.990;18.688;2023-04-26T17:22:35;6.43;;;2.75;;
75297;SDS011;63896;45.990;18.688;2023-04-26T17:25:38;9.27;;;2.83;;
75297;SDS011;63896;45.990;18.688;2023-04-26T17:28:41;6.75;;;2.90;;
75297;SDS011;63896;45.990;18.688;2023-04-26T17:31:44;5.07;;;1.52;;
75297;SDS011;63896;45.990;18.688;2023-04-26T17:34:47;7.55;;;3.13;;
75297;SDS011;63896;45.990;18.688;2023-04-26T17:37:51;5.53;;;2.13;;
75297;SDS011;63896;45.990;18.688;2023-04-26T17:40:54;3.40;;;1.70;;
75297;SDS011;63896;45.990;18.688;2023-04-26T17:43:56;3.67;;;1.60;;
75297;SDS011;63896;45.990;18.688;2023-04-26T17:46:59;8.13;;;2.10;;
75297;SDS011;63896;45.990;18.688;2023-04-26T17:50:03;4.88;;;2.40;;
75297;SDS011;63896;45.990;18.688;2023-04-26T17:53:08;6.85;;;2.92;;
75297;SDS011;63896;45.990;18.688;2023-04-26T17:56:11;6.80;;;2.50;;
75297;SDS011;63896;45.990;18.688;2023-04-26T17:59:14;6.25;;;2.60;;
75297;SDS011;63896;45.990;18.688;2023-04-26T18:02:17;5.97;;;2.60;;
75297;SDS011;63896;45.990;18.688;2023-04-26T18:05:21;9.88;;;2.67;;
75297;SDS011;63896;45.990;18.688;2023-04-26T18:08:25;7.32;;;3.17;;
75297;SDS011;63896;45.990;18.688;2023-04-26T18:11:28;7.17;;;3.10;;
75297;SDS011;63896;45.990;18.688;2023-04-26T18:14:32;8.48;;;3.35;;
75297;SDS011;63896;45.990;18.688;2023-04-26T18:17:34;10.20;;;4.38;;
75297;SDS011;63896;45.990;18.688;2023-04-26T18:20:38;12.88;;;4.70;;
75297;SDS011;63896;45.990;18.688;2023-04-26T18:23:41;12.35;;;6.50;;
75297;SDS011;63896;45.990;18.688;2023-04-26T18:26:44;17.50;;;6.23;;
75297;SDS011;63896;45.990;18.688;2023-04-26T18:29:47;20.50;;;6.80;;
75297;SDS011;63896;45.990;18.688;2023-04-26T18:32:51;12.65;;;6.90;;
75297;SDS011;63896;45.990;18.688;2023-04-26T18:35:54;12.80;;;7.07;;
75297;SDS011;63896;45.990;18.688;2023-04-26T18:38:57;12.40;;;7.53;;
75297;SDS011;63896;45.990;18.688;2023-04-26T18:42:02;14.13;;;6.30;;
75297;SDS011;63896;45.990;18.688;2023-04-26T18:45:05;16.90;;;5.40;;